Time;durP1;ratioP1;P1;durP2;ratioP2;P2;SDS_P1;SDS_P2;PMS_P1;PMS_P2;Temp;Humidity;BMP_temperature;BMP_pressure;BME280_temperature;BME280_humidity;BME280_pressure;Samples;Min_cycle;Max_cycle;Signal;HPM_P1;HPM_P2
2022/06/17 00:00:59;;;;;;;2.00;1.90;;;21.70;35.20;;;;;;20535;6788;308652;-86
2022/06/17 00:03:35;;;;;;;2.13;2.03;;;22.10;35.60;;;;;;20592;6773;321616;-86
2022/06/17 00:06:12;;;;;;;2.22;2.12;;;22.40;35.80;;;;;;20588;6788;337479;-87
2022/06/17 00:08:49;;;;;;;2.30;2.10;;;22.60;35.00;;;;;;20840;6773;117980;-87
2022/06/17 00:11:23;;;;;;;2.00;1.90;;;22.30;35.20;;;;;;20577;6773;307786;-86
2022/06/17 00:13:59;;;;;;;3.30;2.03;;;22.30;34.90;;;;;;20830;6763;117432;-86
2022/06/17 00:16:34;;;;;;;2.70;2.10;;;22.00;35.00;;;;;;20528;6773;278404;-86
2022/06/17 00:19:10;;;;;;;2.08;1.98;;;22.10;35.10;;;;;;20516;6792;334431;-86
2022/06/17 00:21:49;;;;;;;2.20;2.10;;;22.30;35.00;;;;;;20754;6792;117317;-86
2022/06/17 00:24:24;;;;;;;2.20;2.00;;;22.00;35.60;;;;;;20752;6792;117006;-86
2022/06/17 00:27:01;;;;;;;2.90;2.67;;;21.40;37.70;;;;;;20655;6788;122719;-87
2022/06/17 00:29:36;;;;;;;4.60;2.60;;;21.40;37.00;;;;;;20844;6764;117655;-87
2022/06/17 00:32:13;;;;;;;2.90;2.80;;;21.30;37.40;;;;;;20787;6778;117410;-87
2022/06/17 00:34:48;;;;;;;3.83;3.37;;;21.10;37.60;;;;;;20788;6778;118336;-87
2022/06/17 00:37:24;;;;;;;3.57;3.27;;;21.00;38.20;;;;;;20440;6773;279163;-87
2022/06/17 00:40:00;;;;;;;3.20;3.00;;;21.70;39.30;;;;;;20498;6805;312363;-87
2022/06/17 00:42:36;;;;;;;3.30;3.10;;;21.70;39.30;;;;;;20554;6786;309520;-87
2022/06/17 00:45:11;;;;;;;3.57;3.37;;;22.00;39.20;;;;;;20538;6786;279467;-86
2022/06/17 00:47:50;;;;;;;3.03;2.93;;;22.10;39.30;;;;;;20612;6788;118176;-87
2022/06/17 00:50:29;;;;;;;3.53;3.23;;;21.90;39.00;;;;;;20810;6773;117196;-87
2022/06/17 00:53:16;;;;;;;3.23;2.93;;;21.60;39.10;;;;;;20695;6803;117248;-89
2022/06/17 00:55:50;;;;;;;3.20;3.10;;;21.20;39.30;;;;;;20745;6788;116990;-86
2022/06/17 00:58:29;;;;;;;3.83;3.63;;;21.00;39.90;;;;;;20854;6763;117516;-87
2022/06/17 01:01:08;;;;;;;3.80;3.60;;;20.80;40.30;;;;;;20801;6773;117169;-87
2022/06/17 01:03:44;;;;;;;3.70;3.40;;;20.70;40.50;;;;;;20762;6788;117331;-87
2022/06/17 01:06:19;;;;;;;4.53;3.93;;;20.60;40.90;;;;;;20518;6788;280928;-87
2022/06/17 01:11:50;;;;;;;3.83;3.60;;;20.90;41.20;;;;;;20843;6763;123963;-86
2022/06/17 01:14:25;;;;;;;4.20;3.90;;;20.60;41.30;;;;;;20766;6788;117140;-87
2022/06/17 01:17:01;;;;;;;3.77;3.57;;;20.40;41.70;;;;;;20660;6788;119732;-87
2022/06/17 01:19:43;;;;;;;3.83;3.62;;;20.30;42.10;;;;;;20579;6778;305848;-86
2022/06/17 01:22:25;;;;;;;3.77;3.47;;;20.60;42.20;;;;;;20782;6778;117538;-87
2022/06/17 01:25:10;;;;;;;4.27;4.00;;;20.60;42.00;;;;;;20573;6773;306825;-86
2022/06/17 01:27:45;;;;;;;4.77;3.63;;;20.90;41.40;;;;;;20545;6830;120090;-86
2022/06/17 01:30:21;;;;;;;4.10;3.80;;;20.80;41.20;;;;;;20603;6773;306714;-86
2022/06/17 01:33:00;;;;;;;3.83;3.62;;;20.90;41.50;;;;;;20522;6788;339631;-86
2022/06/17 01:35:35;;;;;;;3.80;3.60;;;21.10;40.60;;;;;;20779;6780;117248;-86
2022/06/17 01:38:11;;;;;;;3.60;3.40;;;20.90;40.80;;;;;;20542;6860;118683;-86
2022/06/17 01:40:46;;;;;;;3.20;3.00;;;20.60;41.30;;;;;;20802;6773;120727;-87
2022/06/17 01:43:22;;;;;;;3.27;3.07;;;20.30;41.60;;;;;;20747;6788;124474;-86
2022/06/17 01:45:57;;;;;;;3.43;3.13;;;20.10;41.90;;;;;;20522;6788;305931;-86
2022/06/17 01:48:34;;;;;;;4.00;3.33;;;20.70;40.30;;;;;;20647;6758;277399;-86
2022/06/17 01:51:09;;;;;;;3.67;3.37;;;20.70;40.30;;;;;;20786;6773;117082;-86
2022/06/17 01:53:45;;;;;;;3.50;3.20;;;20.60;40.50;;;;;;20817;6774;116913;-86
2022/06/17 01:56:22;;;;;;;3.47;3.27;;;20.20;40.80;;;;;;20558;6773;283780;-86
2022/06/17 01:59:07;;;;;;;3.20;3.00;;;20.30;40.70;;;;;;20609;6763;305476;-87
2022/06/17 02:01:43;;;;;;;3.20;2.97;;;20.40;40.20;;;;;;20855;6763;117025;-86
2022/06/17 02:04:19;;;;;;;2.83;2.73;;;20.40;40.20;;;;;;20883;6762;119565;-87
2022/06/17 02:07:17;;;;;;;3.00;2.80;;;20.00;40.60;;;;;;20628;6762;307243;-88
2022/06/17 02:09:53;;;;;;;2.27;2.17;;;20.20;40.00;;;;;;20906;6762;117057;-86
2022/06/17 02:12:28;;;;;;;2.80;2.57;;;20.00;40.00;;;;;;20849;6819;117070;-86
2022/06/17 02:15:04;;;;;;;2.62;2.42;;;19.70;40.10;;;;;;20607;6763;337035;-86
2022/06/17 02:17:41;;;;;;;2.20;2.10;;;19.90;38.70;;;;;;20666;6763;117764;-86
2022/06/17 02:20:15;;;;;;;2.33;2.23;;;19.90;39.10;;;;;;20840;6763;117436;-86
2022/06/17 02:22:51;;;;;;;2.03;1.93;;;19.60;39.40;;;;;;20841;6763;117476;-86
2022/06/17 02:25:33;;;;;;;3.10;2.42;;;19.40;39.80;;;;;;20608;6762;334956;-86
2022/06/17 02:28:05;;;;;;;2.30;2.20;;;19.70;39.10;;;;;;20410;6763;308240;-86
2022/06/17 02:30:41;;;;;;;2.90;2.70;;;20.10;38.30;;;;;;20843;6763;117163;-86
2022/06/17 02:33:16;;;;;;;2.72;2.50;;;20.00;38.50;;;;;;20603;6763;306330;-86
2022/06/17 02:36:09;;;;;;;2.60;2.50;;;20.20;38.80;;;;;;20825;6763;117564;-86
2022/06/17 02:38:45;;;;;;;2.40;2.20;;;20.30;38.30;;;;;;20614;6763;307869;-87
2022/06/17 02:41:21;;;;;;;2.70;2.50;;;20.30;38.30;;;;;;20611;6763;308497;-87
2022/06/17 02:43:59;;;;;;;3.50;2.97;;;20.60;39.00;;;;;;20841;6763;122116;-86
2022/06/17 02:46:35;;;;;;;3.03;2.83;;;20.50;40.00;;;;;;20554;6763;310177;-87
2022/06/17 02:49:13;;;;;;;2.90;2.80;;;20.50;41.50;;;;;;20825;6763;118255;-87
2022/06/17 02:51:49;;;;;;;3.10;2.90;;;20.30;41.60;;;;;;20629;6763;305450;-86
2022/06/17 02:54:31;;;;;;;3.03;2.83;;;20.40;41.60;;;;;;20846;6763;117868;-86
2022/06/17 02:57:07;;;;;;;3.50;3.30;;;20.20;41.80;;;;;;20478;6763;308081;-87
2022/06/17 02:59:42;;;;;;;3.13;2.93;;;20.20;42.20;;;;;;20844;6763;119016;-86
2022/06/17 03:02:21;;;;;;;3.50;3.10;;;20.00;42.30;;;;;;20833;6763;117596;-86
2022/06/17 03:04:56;;;;;;;3.37;3.17;;;19.60;42.90;;;;;;20817;6763;117133;-87
2022/06/17 03:07:33;;;;;;;3.50;3.30;;;19.50;43.80;;;;;;20459;6763;308961;-87
2022/06/17 03:10:15;;;;;;;3.40;3.10;;;19.50;43.80;;;;;;20831;6763;116969;-87
2022/06/17 03:12:50;;;;;;;6.70;4.10;;;19.40;43.60;;;;;;20839;6763;116994;-86
2022/06/17 03:15:26;;;;;;;3.67;3.47;;;19.20;43.90;;;;;;20829;6762;117597;-87
2022/06/17 03:18:01;;;;;;;4.07;3.70;;;19.00;44.20;;;;;;20628;6762;117995;-87
2022/06/17 03:20:37;;;;;;;4.40;4.10;;;18.90;44.60;;;;;;20634;6762;276383;-86
2022/06/17 03:23:12;;;;;;;4.53;4.18;;;19.20;44.20;;;;;;20606;6762;336808;-86
2022/06/17 03:26:08;;;;;;;4.80;4.40;;;20.00;43.50;;;;;;20616;6763;305247;-86
2022/06/17 03:28:44;;;;;;;3.80;3.60;;;19.90;43.10;;;;;;20852;6763;116463;-87
2022/06/17 03:31:33;;;;;;;4.40;4.10;;;19.80;43.40;;;;;;20608;6763;301673;-87
2022/06/17 03:34:11;;;;;;;3.57;3.37;;;19.80;43.20;;;;;;20633;6763;305812;-87
2022/06/17 03:36:51;;;;;;;3.95;3.75;;;20.10;42.30;;;;;;20537;6763;307663;-86
2022/06/17 03:39:26;;;;;;;3.63;3.40;;;20.30;41.70;;;;;;20827;6762;117008;-86
2022/06/17 03:42:18;;;;;;;3.70;3.45;;;20.10;42.10;;;;;;20632;6763;279154;-86
2022/06/17 03:44:57;;;;;;;3.53;3.30;;;20.10;42.10;;;;;;20628;6763;305758;-86
2022/06/17 03:47:42;;;;;;;3.78;3.58;;;20.30;41.30;;;;;;20466;6763;307717;-86
2022/06/17 03:50:31;;;;;;;3.20;3.00;;;20.50;41.00;;;;;;20626;6763;305390;-86
2022/06/17 03:53:06;;;;;;;3.83;3.53;;;20.50;40.60;;;;;;20831;6763;117115;-86
2022/06/17 03:55:42;;;;;;;3.33;3.20;;;20.20;41.20;;;;;;20838;6763;117145;-86
2022/06/17 03:58:18;;;;;;;3.90;3.60;;;19.80;42.00;;;;;;20625;6763;306649;-86
2022/06/17 04:00:56;;;;;;;4.30;3.50;;;20.00;41.70;;;;;;20838;6763;117500;-86
2022/06/17 04:03:32;;;;;;;4.87;3.50;;;19.90;42.10;;;;;;20833;6819;116373;-86
2022/06/17 04:06:08;;;;;;;3.92;3.62;;;19.80;42.50;;;;;;20599;6763;308873;-86
2022/06/17 04:08:54;;;;;;;3.70;3.40;;;19.80;42.50;;;;;;20846;6763;117443;-87
2022/06/17 04:11:32;;;;;;;3.87;3.57;;;19.80;42.40;;;;;;20615;6763;306076;-86
2022/06/17 04:14:05;;;;;;;3.90;3.60;;;20.00;41.80;;;;;;20623;6763;308187;-86
2022/06/17 04:17:00;;;;;;;3.53;3.33;;;20.40;40.90;;;;;;20757;6763;120943;-87
2022/06/17 04:19:36;;;;;;;3.73;3.47;;;20.20;41.30;;;;;;20631;6763;305896;-86
2022/06/17 04:22:21;;;;;;;3.85;3.55;;;20.30;41.00;;;;;;20639;6763;290458;-86
2022/06/17 04:24:59;;;;;;;4.00;3.80;;;20.60;39.90;;;;;;20620;6763;276820;-87
2022/06/17 04:30:31;;;;;;;3.92;3.62;;;20.80;41.70;;;;;;20631;6762;302662;-86
2022/06/17 04:33:07;;;;;;;4.13;3.83;;;20.90;41.70;;;;;;20618;6762;279750;-86
2022/06/17 04:35:42;;;;;;;3.95;3.60;;;21.00;41.70;;;;;;20631;6763;334369;-86
2022/06/17 04:38:18;;;;;;;6.17;3.50;;;20.60;42.70;;;;;;20941;6763;67158;-86
2022/06/17 04:40:55;;;;;;;3.83;3.53;;;20.60;42.60;;;;;;20737;6763;274475;-87
2022/06/17 04:43:33;;;;;;;3.90;3.60;;;20.50;42.60;;;;;;20659;6763;306442;-86
2022/06/17 04:46:09;;;;;;;4.03;3.73;;;20.80;41.70;;;;;;20595;6763;278336;-87
2022/06/17 04:48:45;;;;;;;3.67;3.47;;;20.90;40.90;;;;;;20842;6763;117416;-86
2022/06/17 04:51:20;;;;;;;3.80;3.50;;;20.70;41.40;;;;;;20610;6763;299807;-86
2022/06/17 04:53:56;;;;;;;3.60;3.40;;;20.70;40.60;;;;;;20653;6763;305174;-86
2022/06/17 04:56:31;;;;;;;3.90;3.60;;;20.80;40.70;;;;;;20548;6763;301657;-87
2022/06/17 04:59:30;;;;;;;4.30;4.00;;;20.90;40.70;;;;;;20608;6763;337779;-89
2022/06/17 05:02:05;;;;;;;3.80;3.60;;;20.90;40.80;;;;;;20839;6763;117118;-86
2022/06/17 05:04:41;;;;;;;3.73;3.43;;;20.50;41.40;;;;;;20848;6763;116997;-86
2022/06/17 05:07:16;;;;;;;4.20;3.40;;;20.10;42.30;;;;;;20688;6763;117961;-87
2022/06/17 05:09:55;;;;;;;4.47;4.18;;;19.80;42.80;;;;;;20630;6763;309928;-87
2022/06/17 05:12:37;;;;;;;4.28;3.87;;;20.00;42.40;;;;;;20632;6763;334645;-87
2022/06/17 05:15:12;;;;;;;3.60;3.40;;;20.40;41.90;;;;;;20825;6763;117168;-87
2022/06/17 05:17:48;;;;;;;3.70;3.47;;;20.20;42.30;;;;;;20653;6763;119616;-87
2022/06/17 05:20:24;;;;;;;3.70;3.50;;;20.00;42.90;;;;;;20606;6763;304900;-87
2022/06/17 05:23:03;;;;;;;3.80;3.60;;;20.50;41.90;;;;;;20606;6763;305761;-87
2022/06/17 05:25:39;;;;;;;3.87;3.60;;;20.50;41.90;;;;;;20834;6763;118177;-87
2022/06/17 05:28:14;;;;;;;3.70;3.50;;;20.40;42.20;;;;;;20674;6819;117339;-87
2022/06/17 05:30:53;;;;;;;3.80;3.50;;;20.10;42.50;;;;;;20793;6778;117083;-87
2022/06/17 05:33:38;;;;;;;4.00;3.70;;;19.90;42.70;;;;;;20587;6786;279029;-87
2022/06/17 05:36:04;;;;;;;4.40;3.90;;;20.20;42.90;;;;;;20762;6786;121256;-86
2022/06/17 05:38:40;;;;;;;4.17;3.83;;;20.30;43.00;;;;;;20807;6770;117505;-90
2022/06/17 05:41:16;;;;;;;3.93;3.63;;;20.40;42.90;;;;;;20581;6771;307677;-87
2022/06/17 05:43:52;;;;;;;4.55;3.95;;;20.40;42.80;;;;;;20592;6771;306843;-86
2022/06/17 05:46:27;;;;;;;3.87;3.67;;;20.80;42.50;;;;;;20553;6771;283507;-86
2022/06/17 05:49:03;;;;;;;3.90;3.60;;;21.10;42.10;;;;;;20587;6771;277343;-86
2022/06/17 05:51:39;;;;;;;3.97;3.78;;;21.30;41.70;;;;;;20552;6786;307382;-86
2022/06/17 05:54:14;;;;;;;4.20;3.90;;;21.50;41.40;;;;;;20557;6786;279836;-86
2022/06/17 05:56:50;;;;;;;6.80;4.13;;;21.70;40.80;;;;;;20671;6786;117086;-86
2022/06/17 05:59:25;;;;;;;4.30;4.00;;;21.60;41.50;;;;;;20803;6771;120237;-86
2022/06/17 06:02:01;;;;;;;3.67;3.47;;;21.30;42.20;;;;;;20810;6771;116989;-86
2022/06/17 06:04:37;;;;;;;3.70;3.40;;;21.10;42.70;;;;;;20822;6771;116990;-86
2022/06/17 06:07:12;;;;;;;3.33;3.13;;;21.10;43.20;;;;;;20657;6771;150479;-87
2022/06/17 06:09:47;;;;;;;3.47;3.27;;;21.20;43.50;;;;;;20599;6771;306241;-86
2022/06/17 06:12:53;;;;;;;3.70;3.40;;;22.00;42.10;;;;;;20594;6771;335953;-87
2022/06/17 06:14:59;;;;;;;4.20;3.77;;;23.10;39.60;;;;;;20761;6827;121060;-87
2022/06/17 06:17:34;;;;;;;3.37;3.17;;;23.80;40.00;;;;;;20629;6771;122550;-87
2022/06/17 06:20:10;;;;;;;3.70;3.30;;;24.20;40.10;;;;;;20595;6771;295867;-87
2022/06/17 06:22:46;;;;;;;3.45;3.22;;;24.90;37.60;;;;;;20599;6771;310283;-87
2022/06/17 06:25:21;;;;;;;4.17;3.33;;;25.80;36.00;;;;;;20587;6771;306039;-87
2022/06/17 06:27:57;;;;;;;3.60;3.00;;;26.80;35.80;;;;;;20615;6771;117260;-87
2022/06/17 06:30:33;;;;;;;3.50;3.30;;;26.80;35.70;;;;;;20599;6771;307060;-87
2022/06/17 06:33:09;;;;;;;3.10;3.00;;;27.30;33.50;;;;;;20796;6771;120458;-87
2022/06/17 06:35:44;;;;;;;3.27;3.03;;;27.40;34.30;;;;;;20597;6771;307621;-87
2022/06/17 06:38:20;;;;;;;3.10;2.90;;;27.90;32.20;;;;;;20816;6771;119941;-87
2022/06/17 06:40:55;;;;;;;2.83;2.63;;;28.10;32.70;;;;;;20597;6771;305730;-87
2022/06/17 06:43:31;;;;;;;3.47;3.10;;;28.60;30.60;;;;;;20558;6786;294334;-87
2022/06/17 06:46:07;;;;;;;3.63;3.13;;;29.30;30.10;;;;;;20736;6786;117533;-87
2022/06/17 06:48:43;;;;;;;4.83;2.70;;;29.40;30.80;;;;;;20768;6786;117714;-87
2022/06/17 06:51:19;;;;;;;3.20;2.60;;;29.20;31.10;;;;;;20542;6785;309521;-87
2022/06/17 06:53:54;;;;;;;2.90;2.70;;;29.40;30.00;;;;;;20819;6771;119077;-87
2022/06/17 06:56:30;;;;;;;3.67;2.80;;;29.30;30.50;;;;;;20558;6771;278955;-87
2022/06/17 06:59:05;;;;;;;2.60;2.47;;;29.60;29.30;;;;;;20797;6771;122924;-87
2022/06/17 07:01:41;;;;;;;3.03;2.83;;;29.70;30.00;;;;;;20610;6771;305481;-87
2022/06/17 07:04:16;;;;;;;2.90;2.70;;;30.10;29.30;;;;;;20770;6786;117131;-87
2022/06/17 07:06:52;;;;;;;3.37;2.80;;;30.10;29.60;;;;;;20694;6786;117329;-87
2022/06/17 07:09:27;;;;;;;2.80;2.63;;;30.00;30.00;;;;;;20754;6786;116859;-87
2022/06/17 07:12:04;;;;;;;3.43;2.70;;;30.30;28.30;;;;;;20558;6786;277187;-87
2022/06/17 07:14:40;;;;;;;3.10;2.80;;;30.30;28.30;;;;;;20557;6786;308294;-87
2022/06/17 07:17:15;;;;;;;3.73;2.60;;;30.80;28.40;;;;;;20640;6786;117857;-87
2022/06/17 07:19:51;;;;;;;2.80;2.70;;;30.80;28.70;;;;;;20774;6786;116216;-87
2022/06/17 07:22:26;;;;;;;2.83;2.53;;;30.50;28.80;;;;;;20745;6792;117391;-89
2022/06/17 07:25:03;;;;;;;3.00;2.80;;;30.10;29.40;;;;;;20740;6788;147459;-91
2022/06/17 07:27:38;;;;;;;2.97;2.80;;;30.10;29.40;;;;;;20404;6788;342287;-87
2022/06/17 07:30:15;;;;;;;2.60;2.50;;;30.10;29.10;;;;;;20848;6758;118084;-87
2022/06/17 07:32:50;;;;;;;2.77;2.57;;;30.10;29.10;;;;;;20803;6773;120341;-87
2022/06/17 07:35:26;;;;;;;2.85;2.65;;;29.80;29.30;;;;;;20528;6788;338641;-87
2022/06/17 07:41:00;;;;;;;3.10;2.90;;;30.10;28.90;;;;;;20502;6793;309203;-87
2022/06/17 07:43:33;;;;;;;3.07;2.87;;;30.20;29.30;;;;;;20608;6769;277644;-87
2022/06/17 07:46:10;;;;;;;3.10;2.80;;;30.20;29.30;;;;;;20563;6773;281557;-87
2022/06/17 07:48:44;;;;;;;3.30;3.00;;;30.10;28.90;;;;;;20580;6778;306398;-87
2022/06/17 07:51:20;;;;;;;3.00;2.80;;;30.20;29.10;;;;;;20783;6773;117477;-87
2022/06/17 07:53:55;;;;;;;4.73;3.53;;;29.90;29.20;;;;;;20760;6788;117766;-87
2022/06/17 07:56:31;;;;;;;3.30;3.00;;;29.60;29.50;;;;;;20493;6788;281746;-87
2022/06/17 07:59:07;;;;;;;3.53;2.93;;;29.50;29.40;;;;;;20566;6778;307774;-87
2022/06/17 08:01:42;;;;;;;3.20;2.80;;;29.70;28.80;;;;;;20576;6778;279301;-87
2022/06/17 08:04:18;;;;;;;6.07;3.10;;;29.90;29.10;;;;;;20796;6778;117546;-87
2022/06/17 08:06:53;;;;;;;3.07;2.80;;;29.80;29.10;;;;;;20700;6778;117454;-87
2022/06/17 08:09:29;;;;;;;3.07;2.77;;;29.50;29.10;;;;;;20790;6778;117387;-88
2022/06/17 08:12:08;;;;;;;3.00;2.72;;;29.30;29.70;;;;;;20591;6773;323277;-88
2022/06/17 08:14:43;;;;;;;3.13;2.87;;;29.60;29.20;;;;;;20804;6773;117074;-88
2022/06/17 08:17:18;;;;;;;2.75;2.53;;;29.50;29.10;;;;;;20468;6773;308502;-88
2022/06/17 08:19:56;;;;;;;2.70;2.60;;;29.70;28.70;;;;;;20755;6788;117086;-87
2022/06/17 08:22:33;;;;;;;3.27;2.70;;;29.70;28.70;;;;;;20623;6763;277101;-88
2022/06/17 08:25:06;;;;;;;3.00;2.80;;;29.90;28.50;;;;;;20772;6778;121629;-87
2022/06/17 08:27:46;;;;;;;4.23;3.00;;;29.90;29.40;;;;;;20667;6773;117508;-87
2022/06/17 08:30:22;;;;;;;3.20;2.53;;;30.10;28.10;;;;;;20512;6799;277943;-87
2022/06/17 08:32:58;;;;;;;2.47;2.37;;;30.10;28.10;;;;;;20756;6784;119319;-87
2022/06/17 08:35:34;;;;;;;2.97;2.83;;;30.20;28.40;;;;;;20803;6773;117392;-87
2022/06/17 08:38:09;;;;;;;2.87;2.67;;;30.10;28.60;;;;;;20426;6831;308774;-88
2022/06/17 08:40:54;;;;;;;2.83;2.63;;;30.40;29.00;;;;;;20607;6773;278726;-88
2022/06/17 08:43:40;;;;;;;2.87;2.53;;;30.80;29.40;;;;;;20763;6788;117874;-87
2022/06/17 08:46:43;;;;;;;2.30;2.20;;;30.80;28.80;;;;;;20737;6788;117136;-87
2022/06/17 08:49:45;;;;;;;2.50;2.40;;;30.60;28.50;;;;;;20774;6778;117124;-88
2022/06/17 08:52:23;;;;;;;3.20;2.60;;;30.40;28.50;;;;;;20581;6778;335878;-87
2022/06/17 08:55:06;;;;;;;2.70;2.27;;;30.70;27.70;;;;;;20770;6778;117666;-88
2022/06/17 08:57:41;;;;;;;3.97;2.50;;;30.80;27.50;;;;;;20568;6803;120426;-88
2022/06/17 09:00:18;;;;;;;2.57;2.47;;;30.60;27.20;;;;;;20688;6808;117460;-88
2022/06/17 09:03:09;;;;;;;2.90;2.70;;;30.40;27.20;;;;;;20536;6788;307260;-87
2022/06/17 09:05:48;;;;;;;11.53;10.83;;;30.70;28.00;;;;;;20741;6788;119031;-88
2022/06/17 09:08:47;;;;;;;2.70;2.50;;;30.90;27.30;;;;;;20543;6788;306934;-87
2022/06/17 09:11:29;;;;;;;3.37;2.27;;;30.90;27.30;;;;;;20837;6758;117272;-87
2022/06/17 09:14:27;;;;;;;2.50;2.40;;;31.00;27.10;;;;;;20746;6794;116998;-87
2022/06/17 09:17:00;;;;;;;2.60;2.50;;;30.80;26.90;;;;;;20677;6778;117790;-87
2022/06/17 09:19:35;;;;;;;2.30;2.17;;;30.60;27.10;;;;;;20750;6792;117324;-87
2022/06/17 09:22:18;;;;;;;1.93;1.83;;;30.50;27.40;;;;;;20758;6788;117172;-87
2022/06/17 09:24:53;;;;;;;2.37;2.27;;;30.50;27.20;;;;;;20762;6827;117215;-87
2022/06/17 09:27:29;;;;;;;4.43;2.13;;;30.50;27.10;;;;;;20655;6773;117413;-87
2022/06/17 09:30:15;;;;;;;2.30;2.20;;;30.60;26.90;;;;;;20845;6773;117497;-87
2022/06/17 09:33:07;;;;;;;2.50;2.30;;;30.90;26.00;;;;;;20498;6803;294388;-87
2022/06/17 09:35:49;;;;;;;2.30;2.20;;;30.90;26.00;;;;;;20536;6788;313087;-87
2022/06/17 09:38:32;;;;;;;2.95;2.35;;;31.60;26.30;;;;;;20582;6829;277715;-87
2022/06/17 09:41:07;;;;;;;2.67;2.47;;;31.70;26.40;;;;;;20574;6773;277420;-88
2022/06/17 09:43:59;;;;;;;2.50;2.40;;;31.80;24.90;;;;;;20756;6788;117597;-88
2022/06/17 09:46:51;;;;;;;4.10;2.40;;;31.80;25.30;;;;;;20739;6788;117577;-88
2022/06/17 09:49:33;;;;;;;2.85;2.35;;;31.50;26.10;;;;;;20548;6783;278011;-87
2022/06/17 09:52:26;;;;;;;2.37;2.17;;;31.80;25.80;;;;;;20576;6773;301409;-87
2022/06/17 09:55:01;;;;;;;2.50;2.30;;;31.90;25.80;;;;;;20602;6764;277275;-88
2022/06/17 09:57:43;;;;;;;2.07;1.97;;;32.10;25.10;;;;;;20453;6773;279719;-88
2022/06/17 10:00:19;;;;;;;2.47;2.27;;;32.30;25.80;;;;;;20845;6758;117254;-87
2022/06/17 10:03:01;;;;;;;2.60;2.40;;;32.20;26.30;;;;;;20569;6773;338737;-88
2022/06/17 10:05:47;;;;;;;2.40;2.20;;;32.20;25.90;;;;;;20831;6764;117839;-87
2022/06/17 10:08:25;;;;;;;3.72;2.17;;;32.10;26.60;;;;;;20620;6764;309140;-87
2022/06/17 10:11:18;;;;;;;2.00;1.90;;;32.20;25.80;;;;;;20806;6764;121178;-87
2022/06/17 10:13:53;;;;;;;3.03;1.90;;;32.20;25.40;;;;;;20831;6764;117527;-87
2022/06/17 10:19:28;;;;;;;2.10;2.00;;;31.50;25.60;;;;;;20785;6773;117182;-87
2022/06/17 10:22:33;;;;;;;2.75;1.80;;;31.40;25.60;;;;;;20582;6771;306285;-87
2022/06/17 10:25:29;;;;;;;3.30;2.17;;;31.70;25.60;;;;;;20580;6770;278316;-88
2022/06/17 10:28:25;;;;;;;2.00;1.60;;;32.10;25.30;;;;;;20597;6785;121669;-87
2022/06/17 10:31:13;;;;;;;1.67;1.57;;;32.20;25.20;;;;;;20770;6827;120387;-87
2022/06/17 10:33:49;;;;;;;1.40;1.40;;;31.90;25.20;;;;;;20015;6842;122659;-87
2022/06/17 10:36:28;;;;;;;3.05;2.05;;;31.90;25.10;;;;;;20496;6786;338145;-87
2022/06/17 10:39:02;;;;;;;1.90;1.80;;;32.30;24.90;;;;;;20534;6786;278945;-87
2022/06/17 10:41:37;;;;;;;2.03;1.45;;;32.20;24.60;;;;;;20550;6786;302486;-87
2022/06/17 10:44:12;;;;;;;1.42;1.42;;;32.50;22.40;;;;;;20760;6786;116637;-86
2022/06/17 10:46:55;;;;;;;1.80;1.70;;;32.30;22.90;;;;;;20684;6786;119912;-86
2022/06/17 10:49:36;;;;;;;2.40;1.80;;;32.00;24.30;;;;;;20803;6771;117547;-87
2022/06/17 10:52:18;;;;;;;1.43;1.33;;;32.00;24.10;;;;;;20595;6771;276545;-87
2022/06/17 10:54:54;;;;;;;1.90;1.80;;;32.10;23.30;;;;;;20594;6771;308857;-86
2022/06/17 10:57:30;;;;;;;3.50;2.10;;;32.50;24.30;;;;;;20671;6771;117472;-87
2022/06/17 11:00:22;;;;;;;2.20;2.00;;;32.40;24.10;;;;;;20635;6758;306238;-87
2022/06/17 11:02:58;;;;;;;1.90;1.63;;;32.50;24.50;;;;;;20537;6784;278288;-87
2022/06/17 11:05:34;;;;;;;2.00;1.80;;;32.70;24.70;;;;;;20561;6830;280481;-87
2022/06/17 11:08:10;;;;;;;2.40;1.77;;;32.80;25.10;;;;;;20354;6850;310860;-87
2022/06/17 11:10:53;;;;;;;2.27;1.87;;;33.00;25.20;;;;;;20572;6779;306745;-87
2022/06/17 11:13:29;;;;;;;2.40;1.90;;;33.10;24.20;;;;;;20571;6773;308119;-87
2022/06/17 11:16:05;;;;;;;2.10;1.87;;;33.20;25.10;;;;;;20502;6793;310009;-87
2022/06/17 11:18:43;;;;;;;2.10;1.90;;;33.20;24.80;;;;;;20742;6792;122717;-88
2022/06/17 11:21:19;;;;;;;3.40;1.53;;;33.00;25.00;;;;;;20796;6773;117044;-87
2022/06/17 11:23:53;;;;;;;1.70;1.70;;;32.70;25.00;;;;;;20739;6794;117676;-87
2022/06/17 11:26:30;;;;;;;2.00;1.90;;;32.50;25.40;;;;;;20477;6792;309563;-87
2022/06/17 11:29:05;;;;;;;1.90;1.80;;;32.50;24.90;;;;;;20769;6778;118664;-87
2022/06/17 11:31:45;;;;;;;1.80;1.70;;;32.50;24.90;;;;;;20751;6842;117228;-87
2022/06/17 11:34:17;;;;;;;1.60;1.53;;;32.30;25.00;;;;;;20812;6773;116966;-87
2022/06/17 11:36:52;;;;;;;2.07;1.90;;;32.20;24.70;;;;;;20670;6788;117036;-87
2022/06/17 11:39:34;;;;;;;1.90;1.80;;;32.10;24.90;;;;;;20578;6773;280447;-87
2022/06/17 11:42:16;;;;;;;1.80;1.70;;;32.20;24.00;;;;;;20545;6788;290213;-87
2022/06/17 11:44:55;;;;;;;1.60;1.50;;;32.40;24.40;;;;;;20587;6773;308929;-88
2022/06/17 11:47:31;;;;;;;1.40;1.30;;;32.50;23.90;;;;;;20629;6788;117691;-87
2022/06/17 11:50:10;;;;;;;1.50;1.40;;;32.30;23.80;;;;;;20589;6773;338903;-87
2022/06/17 11:52:46;;;;;;;1.50;1.40;;;32.20;23.90;;;;;;20799;6773;120889;-87
2022/06/17 11:55:28;;;;;;;1.70;1.42;;;32.20;23.90;;;;;;20558;6777;308205;-87
2022/06/17 11:58:11;;;;;;;3.30;1.73;;;32.20;24.10;;;;;;21152;6561;66601;-86
2022/06/17 12:00:49;;;;;;;1.30;1.30;;;32.10;24.30;;;;;;20541;6841;277662;-86
2022/06/17 12:03:21;;;;;;;1.40;1.30;;;32.20;24.30;;;;;;20734;6841;117444;-86
2022/06/17 12:05:56;;;;;;;1.80;1.60;;;32.10;24.80;;;;;;20679;6841;117223;-87
2022/06/17 12:08:24;;;;;;;1.50;1.40;;;31.90;24.40;;;;;;20516;6841;308402;-87
2022/06/17 12:10:51;;;;;;;1.97;1.40;;;32.00;24.10;;;;;;20741;6841;120242;-87
2022/06/17 12:13:43;;;;;;;1.73;1.37;;;31.90;24.60;;;;;;20747;6841;117717;-87
2022/06/17 12:16:15;;;;;;;2.27;1.53;;;31.80;24.50;;;;;;20686;6864;117471;-87
2022/06/17 12:18:44;;;;;;;1.50;1.40;;;31.60;24.90;;;;;;20697;6865;118601;-87
2022/06/17 12:21:24;;;;;;;1.50;1.40;;;31.40;24.90;;;;;;20471;6857;308634;-88
2022/06/17 12:23:51;;;;;;;1.37;1.27;;;31.60;25.80;;;;;;20411;6863;119989;-87
2022/06/17 12:26:26;;;;;;;1.37;1.30;;;31.60;24.90;;;;;;20527;6848;339383;-87
2022/06/17 12:29:21;;;;;;;1.50;1.40;;;31.70;24.70;;;;;;20494;6848;337637;-88
2022/06/17 12:31:54;;;;;;;1.60;1.40;;;32.20;24.80;;;;;;20532;6848;279357;-88
2022/06/17 12:34:36;;;;;;;1.47;1.37;;;32.20;24.80;;;;;;20510;6848;281250;-88
2022/06/17 12:37:04;;;;;;;1.20;1.10;;;32.40;24.90;;;;;;19660;6862;282484;-88
2022/06/17 12:39:34;;;;;;;1.33;1.23;;;32.50;22.50;;;;;;20676;6862;118103;-88
2022/06/17 12:42:13;;;;;;;1.50;1.00;;;32.20;23.70;;;;;;20678;6862;118083;-88
2022/06/17 12:44:42;;;;;;;1.03;1.03;;;32.20;23.70;;;;;;20681;6862;119616;-88
2022/06/17 12:47:13;;;;;;;1.20;1.10;;;32.00;24.60;;;;;;20471;6858;303509;-90
2022/06/17 12:53:14;;;;;;;1.17;1.08;;;32.40;23.10;;;;;;20494;6858;337731;-88
2022/06/17 12:55:59;;;;;;;1.10;1.00;;;32.50;21.10;;;;;;20703;6858;118017;-88
2022/06/17 12:58:45;;;;;;;1.13;1.03;;;32.30;21.70;;;;;;20498;6858;308519;-88
2022/06/17 13:01:20;;;;;;;1.30;1.20;;;32.10;21.50;;;;;;20471;6858;310043;-88
2022/06/17 13:04:06;;;;;;;2.00;1.33;;;32.20;22.20;;;;;;20452;6858;308630;-88
2022/06/17 13:06:35;;;;;;;2.10;1.37;;;32.30;23.20;;;;;;20480;6858;292661;-88
2022/06/17 13:09:06;;;;;;;1.10;1.10;;;32.40;22.70;;;;;;20688;6857;117402;-88
2022/06/17 13:11:41;;;;;;;1.00;0.90;;;32.30;22.90;;;;;;20340;6858;309689;-87
2022/06/17 13:14:37;;;;;;;2.40;1.40;;;32.30;22.40;;;;;;20438;6832;286356;-87
2022/06/17 13:17:19;;;;;;;1.30;1.10;;;32.50;21.90;;;;;;20523;6832;308865;-87
2022/06/17 13:20:25;;;;;;;2.23;1.20;;;32.40;21.90;;;;;;20713;6856;117425;-87
2022/06/17 13:22:51;;;;;;;1.40;1.30;;;32.20;22.30;;;;;;20692;6863;117377;-88
2022/06/17 13:25:23;;;;;;;1.27;1.27;;;31.80;22.90;;;;;;20672;6857;119672;-87
2022/06/17 13:27:59;;;;;;;3.10;1.20;;;31.50;23.20;;;;;;20702;6857;123326;-87
2022/06/17 13:30:28;;;;;;;1.60;1.20;;;31.30;23.10;;;;;;20465;6860;279491;-87
2022/06/17 13:32:57;;;;;;;1.57;1.10;;;31.40;22.60;;;;;;20499;6851;308811;-88
2022/06/17 13:35:29;;;;;;;1.10;1.00;;;31.70;22.00;;;;;;20721;6851;117942;-88
2022/06/17 13:37:58;;;;;;;1.07;1.00;;;31.60;21.80;;;;;;20698;6851;117900;-88
2022/06/17 13:40:27;;;;;;;1.37;1.30;;;31.40;21.90;;;;;;20501;6853;309828;-88
2022/06/17 13:42:53;;;;;;;1.07;1.00;;;31.40;21.80;;;;;;20473;6851;279022;-88
2022/06/17 13:45:18;;;;;;;0.90;0.90;;;31.70;21.40;;;;;;20514;6845;308851;-88